Time;durP1;ratioP1;P1;durP2;ratioP2;P2;SDS_P1;SDS_P2;PMS_P1;PMS_P2;Temp;Humidity;BMP_temperature;BMP_pressure;BME280_temperature;BME280_humidity;BME280_pressure;Samples;Min_cycle;Max_cycle;Signal;HPM_P1;HPM_P2
2022/02/18 00:00:07;;;;;;;9.57;4.43;;;30.70;97.20;;;;;;5050067;28;20418;-75
2022/02/18 00:02:34;;;;;;;9.52;4.32;;;30.50;97.60;;;;;;5044754;28;20052;-74
2022/02/18 00:05:01;;;;;;;7.32;3.72;;;30.40;97.60;;;;;;5047388;28;20029;-73
2022/02/18 00:07:29;;;;;;;6.40;3.63;;;30.60;98.40;;;;;;5045953;28;20029;-73
2022/02/18 00:09:56;;;;;;;10.65;4.35;;;30.70;96.70;;;;;;5047848;28;20052;-73
2022/02/18 00:12:23;;;;;;;8.98;4.05;;;30.70;98.30;;;;;;5048033;28;20037;-72
2022/02/18 00:14:51;;;;;;;11.48;4.30;;;30.90;97.20;;;;;;5046056;28;20037;-74
2022/02/18 00:17:18;;;;;;;9.05;4.80;;;31.00;96.70;;;;;;5043836;28;20136;-75
2022/02/18 00:19:45;;;;;;;7.68;4.28;;;31.00;96.60;;;;;;5047243;28;20075;-73
2022/02/18 00:22:13;;;;;;;7.47;4.03;;;30.90;97.10;;;;;;5045386;28;20032;-74
2022/02/18 00:24:40;;;;;;;7.05;4.50;;;30.80;96.40;;;;;;5047772;28;20031;-75
2022/02/18 00:27:07;;;;;;;12.35;4.18;;;30.90;98.00;;;;;;5044960;28;20029;-73
2022/02/18 00:29:35;;;;;;;9.73;4.63;;;31.20;97.80;;;;;;5045563;28;20036;-74
2022/02/18 00:32:07;;;;;;;7.78;4.07;;;31.40;96.00;;;;;;5048900;28;20029;-75
2022/02/18 00:34:35;;;;;;;7.95;4.18;;;31.40;96.60;;;;;;5045601;28;20032;-77
2022/02/18 00:37:03;;;;;;;9.75;4.00;;;31.60;96.70;;;;;;5043524;28;20101;-73
2022/02/18 00:39:31;;;;;;;6.15;4.32;;;31.60;95.70;;;;;;5044645;28;20132;-76
2022/02/18 00:41:59;;;;;;;7.40;3.47;;;31.50;95.90;;;;;;5047758;28;20049;-77
2022/02/18 00:44:27;;;;;;;8.13;3.67;;;31.30;95.80;;;;;;5048354;28;20037;-74
2022/02/18 00:46:54;;;;;;;8.63;3.47;;;31.20;96.20;;;;;;5049083;28;20033;-76
2022/02/18 00:49:21;;;;;;;7.28;2.63;;;31.00;95.70;;;;;;5045776;28;20235;-75
2022/02/18 00:51:49;;;;;;;6.85;3.88;;;31.10;95.70;;;;;;5044920;28;20033;-73
2022/02/18 00:54:16;;;;;;;7.80;3.85;;;31.40;95.50;;;;;;5044461;28;20416;-78
2022/02/18 00:56:44;;;;;;;7.93;3.90;;;31.60;95.50;;;;;;5048444;28;20175;-73
2022/02/18 00:59:11;;;;;;;6.55;2.95;;;31.80;95.90;;;;;;5043801;28;20094;-74
2022/02/18 01:01:39;;;;;;;6.20;2.67;;;32.30;95.30;;;;;;5048968;28;20025;-76
2022/02/18 01:04:09;;;;;;;5.93;3.20;;;32.70;94.80;;;;;;5029308;28;20029;-76
2022/02/18 01:06:36;;;;;;;6.60;3.05;;;33.00;96.10;;;;;;5049727;28;20034;-78
2022/02/18 01:09:04;;;;;;;5.35;2.88;;;33.20;95.30;;;;;;5047833;28;20021;-78
2022/02/18 01:11:31;;;;;;;8.13;2.80;;;33.50;93.50;;;;;;5051638;28;20052;-79
2022/02/18 01:13:59;;;;;;;3.33;2.22;;;33.60;93.90;;;;;;5050982;28;20025;-77
2022/02/18 01:16:27;;;;;;;6.75;3.35;;;33.70;94.00;;;;;;5049344;28;20033;-78
2022/02/18 01:18:54;;;;;;;7.63;2.60;;;33.90;94.40;;;;;;5047824;28;20055;-77
2022/02/18 01:21:22;;;;;;;4.95;1.80;;;34.00;92.90;;;;;;5049303;28;20106;-77
2022/02/18 01:23:50;;;;;;;5.82;2.53;;;34.00;92.80;;;;;;5045884;28;20033;-75
2022/02/18 01:26:17;;;;;;;8.75;2.72;;;34.10;91.80;;;;;;5051519;28;20025;-75
2022/02/18 01:28:45;;;;;;;9.60;2.70;;;34.10;92.70;;;;;;5049875;28;20403;-75
2022/02/18 01:31:13;;;;;;;9.43;2.85;;;34.20;91.60;;;;;;5051554;28;20060;-75
2022/02/18 01:33:41;;;;;;;6.63;3.05;;;34.10;91.10;;;;;;5045875;28;20044;-77
2022/02/18 01:36:09;;;;;;;4.88;2.38;;;34.10;91.30;;;;;;5045704;28;20028;-76
2022/02/18 01:38:36;;;;;;;4.25;2.05;;;34.30;92.60;;;;;;5047927;28;20024;-72
2022/02/18 01:41:03;;;;;;;4.47;2.63;;;34.50;92.50;;;;;;5045259;28;20484;-78
2022/02/18 01:43:31;;;;;;;5.95;2.47;;;34.70;91.00;;;;;;5043362;28;20111;-75
2022/02/18 01:45:58;;;;;;;4.97;2.20;;;34.80;91.30;;;;;;5051071;28;20048;-74
2022/02/18 01:48:26;;;;;;;4.68;2.42;;;34.80;89.60;;;;;;5052166;28;20090;-76
2022/02/18 01:50:53;;;;;;;5.78;2.17;;;34.70;91.00;;;;;;5054944;28;20441;-78
2022/02/18 01:53:20;;;;;;;4.70;1.88;;;34.80;89.20;;;;;;5050305;28;20407;-76
2022/02/18 01:55:48;;;;;;;4.60;1.67;;;34.90;88.90;;;;;;5052328;28;20033;-78
2022/02/18 01:58:15;;;;;;;4.07;1.50;;;34.90;88.30;;;;;;5058471;28;20029;-77
2022/02/18 02:00:42;;;;;;;4.03;2.00;;;34.90;88.20;;;;;;5048657;28;20455;-76
2022/02/18 02:03:10;;;;;;;7.30;1.70;;;34.90;87.70;;;;;;5044293;28;20372;-78
2022/02/18 02:05:37;;;;;;;4.10;1.63;;;35.10;86.90;;;;;;5049866;28;20036;-76
2022/02/18 02:08:04;;;;;;;8.43;2.22;;;35.20;88.60;;;;;;5048516;28;20490;-76
2022/02/18 02:10:33;;;;;;;2.72;1.20;;;35.30;90.10;;;;;;5046596;28;20332;-77
2022/02/18 02:13:01;;;;;;;6.35;1.95;;;35.20;86.50;;;;;;5048113;28;20021;-75
2022/02/18 02:15:29;;;;;;;5.55;2.15;;;35.40;90.30;;;;;;5050492;28;20033;-78
2022/02/18 02:18:01;;;;;;;3.75;1.50;;;35.50;85.50;;;;;;5049162;28;20143;-77
2022/02/18 02:20:29;;;;;;;3.88;1.30;;;35.60;84.70;;;;;;5051343;28;20082;-76
2022/02/18 02:22:56;;;;;;;2.03;1.27;;;35.50;84.00;;;;;;5047925;28;20025;-76
2022/02/18 02:25:33;;;;;;;2.25;1.23;;;35.40;82.70;;;;;;5040533;28;20119;-79
2022/02/18 02:28:00;;;;;;;3.20;1.63;;;35.60;83.70;;;;;;5040936;28;20033;-76
2022/02/18 02:30:27;;;;;;;4.32;2.15;;;35.60;84.40;;;;;;5049285;28;20194;-77
2022/02/18 02:32:55;;;;;;;4.13;1.15;;;35.80;83.80;;;;;;5048347;28;20021;-77
2022/02/18 02:35:22;;;;;;;2.35;0.98;;;36.00;84.70;;;;;;5050647;28;20032;-78
2022/02/18 02:37:49;;;;;;;2.70;1.13;;;36.20;84.60;;;;;;5047329;28;20487;-79
2022/02/18 02:40:18;;;;;;;3.78;0.93;;;36.30;82.50;;;;;;5054915;28;20435;-77
2022/02/18 02:42:47;;;;;;;2.28;1.00;;;36.50;81.60;;;;;;5045774;28;20112;-78
2022/02/18 02:45:16;;;;;;;3.88;1.10;;;36.60;82.10;;;;;;5051901;28;20033;-76
2022/02/18 02:47:47;;;;;;;2.03;0.50;;;36.60;81.80;;;;;;5048123;28;20376;-75
2022/02/18 02:50:16;;;;;;;2.10;1.23;;;36.50;80.40;;;;;;5041421;28;20039;-75
2022/02/18 02:52:44;;;;;;;3.88;1.30;;;36.60;80.50;;;;;;5049065;28;20029;-78
2022/02/18 02:55:13;;;;;;;2.97;1.48;;;36.50;79.30;;;;;;5049760;28;20025;-77
2022/02/18 02:57:42;;;;;;;5.07;1.13;;;36.40;80.00;;;;;;5046997;28;20056;-73
2022/02/18 03:00:11;;;;;;;3.50;0.93;;;36.50;82.70;;;;;;5048499;28;20021;-76
2022/02/18 03:02:39;;;;;;;3.22;0.95;;;36.60;80.80;;;;;;5050406;28;20125;-76
2022/02/18 03:05:08;;;;;;;2.65;1.30;;;36.60;79.30;;;;;;5051553;28;20463;-76
2022/02/18 03:07:35;;;;;;;3.10;0.93;;;36.60;81.70;;;;;;5049368;28;20059;-74
2022/02/18 03:10:05;;;;;;;5.18;0.90;;;37.00;81.60;;;;;;5040073;28;20045;-76
2022/02/18 03:12:33;;;;;;;3.20;1.33;;;37.00;82.00;;;;;;5044100;28;20029;-77
2022/02/18 03:15:01;;;;;;;4.00;1.65;;;37.30;81.80;;;;;;5050772;28;20214;-78
2022/02/18 03:17:29;;;;;;;2.08;1.20;;;37.30;81.40;;;;;;5047193;28;20052;-78
2022/02/18 03:19:56;;;;;;;2.92;1.08;;;37.30;80.60;;;;;;5040011;28;20017;-77
2022/02/18 03:22:23;;;;;;;3.40;1.45;;;37.00;77.90;;;;;;5046263;28;20143;-77
2022/02/18 03:24:50;;;;;;;3.00;0.80;;;37.00;80.50;;;;;;5046694;28;20032;-79
2022/02/18 03:27:18;;;;;;;3.75;1.73;;;37.10;79.00;;;;;;5045922;28;20044;-78
2022/02/18 03:29:45;;;;;;;4.57;0.80;;;37.30;79.10;;;;;;5048148;28;20051;-78
2022/02/18 03:32:13;;;;;;;3.53;1.45;;;37.20;76.00;;;;;;5046087;28;20420;-76
2022/02/18 03:34:40;;;;;;;4.55;0.73;;;37.20;75.40;;;;;;5045709;28;20029;-74
2022/02/18 03:37:08;;;;;;;4.53;0.85;;;37.10;76.00;;;;;;5044190;28;20459;-78
2022/02/18 03:39:35;;;;;;;2.10;0.60;;;37.20;77.00;;;;;;5051018;28;20036;-76
2022/02/18 03:42:03;;;;;;;3.15;1.15;;;37.30;77.90;;;;;;5049057;28;20071;-80
2022/02/18 03:44:30;;;;;;;1.85;0.65;;;37.60;76.50;;;;;;5043341;28;20048;-76
2022/02/18 03:46:58;;;;;;;1.90;1.02;;;37.70;75.70;;;;;;5048062;28;20116;-78
2022/02/18 03:49:25;;;;;;;1.08;0.60;;;37.60;73.60;;;;;;5047074;28;20047;-78
2022/02/18 03:51:53;;;;;;;3.40;0.75;;;37.70;74.10;;;;;;5049883;28;20372;-79
2022/02/18 03:54:20;;;;;;;2.13;0.60;;;37.70;74.30;;;;;;5047408;28;20043;-77
2022/02/18 03:56:47;;;;;;;3.38;0.60;;;37.60;73.00;;;;;;5043332;28;20500;-75
2022/02/18 03:59:15;;;;;;;3.15;0.60;;;37.60;72.30;;;;;;5045958;28;20112;-78
2022/02/18 04:01:42;;;;;;;3.25;0.70;;;37.80;71.40;;;;;;5048641;28;20491;-75
2022/02/18 04:04:09;;;;;;;2.13;0.55;;;37.90;72.60;;;;;;5050203;28;20072;-78
2022/02/18 04:06:37;;;;;;;3.65;0.90;;;37.80;72.60;;;;;;5048607;28;20119;-77
2022/02/18 04:09:04;;;;;;;2.42;0.50;;;38.00;72.00;;;;;;5048929;28;20068;-78
2022/02/18 04:11:31;;;;;;;4.20;0.98;;;37.90;72.80;;;;;;5049940;28;20025;-77
2022/02/18 04:13:59;;;;;;;2.63;0.88;;;37.90;71.70;;;;;;5044865;28;20028;-79
2022/02/18 04:16:27;;;;;;;1.48;0.47;;;37.90;71.10;;;;;;5048101;28;20059;-79
2022/02/18 04:18:57;;;;;;;2.35;0.55;;;37.80;69.40;;;;;;5047102;28;20123;-76
2022/02/18 04:21:24;;;;;;;1.50;0.68;;;37.70;72.30;;;;;;5042957;28;20096;-78
2022/02/18 04:23:51;;;;;;;2.55;0.63;;;37.70;71.70;;;;;;5049027;28;20051;-77
2022/02/18 04:26:19;;;;;;;1.33;0.50;;;37.80;73.30;;;;;;5050070;28;20100;-76
2022/02/18 04:28:46;;;;;;;3.15;0.68;;;37.80;72.40;;;;;;5046584;28;20024;-79
2022/02/18 04:31:13;;;;;;;3.65;2.05;;;37.70;70.10;;;;;;5050295;28;20100;-76
2022/02/18 04:33:41;;;;;;;7.13;2.90;;;37.20;78.90;;;;;;5045585;28;20111;-75
2022/02/18 04:36:08;;;;;;;6.60;2.17;;;36.80;80.30;;;;;;5049304;28;20040;-76
2022/02/18 04:38:36;;;;;;;5.68;1.92;;;36.40;81.50;;;;;;5046247;28;20048;-73
2022/02/18 04:41:03;;;;;;;6.95;2.75;;;36.00;80.90;;;;;;5048566;28;20475;-74
2022/02/18 04:43:30;;;;;;;8.32;2.30;;;35.70;82.40;;;;;;5048086;28;20068;-76
2022/02/18 04:45:58;;;;;;;5.55;2.10;;;35.50;83.40;;;;;;5038028;28;20060;-74
2022/02/18 04:48:25;;;;;;;8.05;2.25;;;35.30;84.00;;;;;;5046479;28;20115;-73
2022/02/18 04:50:53;;;;;;;6.88;2.60;;;35.10;85.80;;;;;;5048760;28;20124;-73
2022/02/18 04:53:20;;;;;;;8.00;2.33;;;34.90;86.40;;;;;;5049575;28;20032;-76
2022/02/18 04:55:47;;;;;;;7.45;2.15;;;34.70;87.20;;;;;;5049177;28;20027;-75
2022/02/18 04:58:15;;;;;;;6.55;2.05;;;34.60;88.00;;;;;;5047324;28;20040;-75
2022/02/18 05:00:42;;;;;;;7.63;2.20;;;34.80;88.40;;;;;;5053577;28;20021;-73
2022/02/18 05:03:10;;;;;;;6.35;2.30;;;34.50;88.80;;;;;;5050166;28;20068;-73
2022/02/18 05:05:37;;;;;;;5.40;2.15;;;34.30;88.90;;;;;;5053055;28;20116;-73
2022/02/18 05:08:05;;;;;;;7.80;2.22;;;34.10;88.70;;;;;;5049304;28;20053;-73
2022/02/18 05:10:32;;;;;;;4.88;2.25;;;34.10;89.10;;;;;;5051905;28;20574;-73
2022/02/18 05:12:59;;;;;;;6.50;1.58;;;33.90;88.80;;;;;;5051251;28;20032;-74
2022/02/18 05:25:34;;;;;;;7.03;2.15;;;33.20;90.30;;;;;;5046503;28;20118;-74
2022/02/18 05:28:05;;;;;;;5.70;1.83;;;33.10;90.30;;;;;;5045441;28;20029;-73
2022/02/18 05:30:33;;;;;;;9.13;2.28;;;33.00;90.20;;;;;;5052064;28;20460;-73
2022/02/18 05:33:00;;;;;;;6.90;2.45;;;32.90;89.90;;;;;;5048091;28;20029;-74
2022/02/18 05:35:28;;;;;;;6.47;1.98;;;32.80;90.40;;;;;;5050068;28;20029;-73
2022/02/18 05:37:55;;;;;;;6.43;1.98;;;32.70;90.30;;;;;;5025008;28;20403;-74
2022/02/18 05:40:22;;;;;;;6.50;1.85;;;32.50;90.50;;;;;;5049971;28;20380;-74
2022/02/18 05:42:50;;;;;;;5.63;1.77;;;32.40;90.70;;;;;;5048072;28;20045;-73
2022/02/18 05:45:17;;;;;;;4.15;1.33;;;32.30;90.10;;;;;;5053074;28;20032;-74
2022/02/18 05:47:44;;;;;;;7.45;1.55;;;32.20;90.50;;;;;;5047642;28;20100;-73
2022/02/18 05:50:12;;;;;;;4.72;1.63;;;31.90;90.10;;;;;;5050264;28;20095;-74
2022/02/18 05:52:41;;;;;;;4.25;1.83;;;31.80;90.00;;;;;;5049680;28;20047;-73
2022/02/18 05:55:09;;;;;;;4.55;1.70;;;31.70;90.30;;;;;;5046255;28;20025;-74
2022/02/18 05:57:36;;;;;;;6.90;2.15;;;31.50;90.30;;;;;;5048145;28;20079;-74
2022/02/18 06:00:07;;;;;;;4.40;2.08;;;31.50;90.70;;;;;;5048541;28;20403;-75
2022/02/18 06:02:35;;;;;;;3.47;1.55;;;31.60;90.60;;;;;;5047959;28;20040;-74
2022/02/18 06:05:03;;;;;;;4.20;1.63;;;31.40;90.40;;;;;;5042965;28;20036;-76
2022/02/18 06:07:31;;;;;;;12.18;2.00;;;31.20;90.50;;;;;;5049412;28;20037;-77
2022/02/18 06:09:59;;;;;;;4.80;1.83;;;31.20;90.80;;;;;;5043603;28;20033;-75
2022/02/18 06:12:27;;;;;;;5.32;1.55;;;31.20;91.00;;;;;;5049315;28;20499;-86
2022/02/18 06:14:54;;;;;;;5.63;1.52;;;31.10;91.30;;;;;;5048432;28;20033;-80
2022/02/18 06:17:22;;;;;;;2.38;1.33;;;31.10;91.60;;;;;;5048603;28;21620;-79
2022/02/18 06:19:50;;;;;;;5.78;1.42;;;31.00;91.70;;;;;;5048077;28;20040;-76
2022/02/18 06:22:18;;;;;;;4.40;1.77;;;30.80;92.10;;;;;;5044226;28;20022;-76
2022/02/18 06:24:45;;;;;;;4.18;1.48;;;30.80;92.20;;;;;;5050570;28;20497;-77
2022/02/18 06:27:13;;;;;;;3.17;1.02;;;30.90;92.10;;;;;;5044120;28;20130;-74
2022/02/18 06:29:40;;;;;;;5.15;1.98;;;30.90;92.10;;;;;;5041936;28;20086;-76
2022/02/18 06:32:11;;;;;;;3.88;1.30;;;30.70;92.30;;;;;;5043442;28;20033;-75
2022/02/18 06:34:38;;;;;;;3.60;2.17;;;30.50;92.60;;;;;;5050680;28;20036;-77
2022/02/18 06:37:06;;;;;;;4.07;1.63;;;30.10;93.20;;;;;;5050811;28;20036;-78
2022/02/18 06:39:35;;;;;;;10.57;1.92;;;29.90;93.20;;;;;;5051049;28;20024;-77
2022/02/18 06:42:03;;;;;;;4.78;1.17;;;29.90;93.10;;;;;;5049071;28;20122;-75
2022/02/18 06:44:30;;;;;;;7.13;2.72;;;29.80;93.30;;;;;;5048804;28;20049;-74
2022/02/18 06:46:58;;;;;;;8.00;2.05;;;29.70;93.20;;;;;;5046253;28;20108;-74
2022/02/18 06:49:25;;;;;;;3.53;1.63;;;29.60;93.10;;;;;;5050791;28;20455;-75
2022/02/18 06:51:56;;;;;;;4.50;1.33;;;29.50;93.30;;;;;;5050401;28;20033;-75
2022/02/18 06:54:27;;;;;;;6.07;1.75;;;29.50;93.40;;;;;;5047117;28;20021;-75
2022/02/18 06:56:56;;;;;;;4.25;1.65;;;29.60;93.40;;;;;;5048462;28;20103;-76
2022/02/18 06:59:23;;;;;;;3.47;1.00;;;29.60;93.00;;;;;;5052010;28;20029;-75
2022/02/18 07:01:53;;;;;;;6.22;1.63;;;29.40;92.70;;;;;;5050565;28;20037;-78
2022/02/18 07:04:21;;;;;;;3.53;1.70;;;29.00;92.80;;;;;;5043833;28;20033;-76
2022/02/18 07:06:48;;;;;;;3.95;1.45;;;28.70;92.60;;;;;;5045185;28;20052;-75
2022/02/18 07:09:19;;;;;;;3.55;1.80;;;28.70;92.60;;;;;;5041813;28;20021;-75
2022/02/18 07:11:47;;;;;;;7.63;1.73;;;28.80;92.60;;;;;;5044645;28;20025;-77
2022/02/18 07:14:14;;;;;;;7.95;1.90;;;28.70;92.50;;;;;;5040961;28;20194;-75
2022/02/18 07:16:42;;;;;;;7.40;1.20;;;28.60;92.50;;;;;;5042013;28;20025;-75
2022/02/18 07:19:15;;;;;;;2.75;1.20;;;28.50;93.00;;;;;;5040640;28;20068;-78
2022/02/18 07:21:42;;;;;;;4.03;2.40;;;28.60;93.00;;;;;;5040895;28;20507;-74
2022/02/18 07:24:11;;;;;;;8.13;1.55;;;28.60;93.20;;;;;;5041935;28;20120;-79
2022/02/18 07:26:39;;;;;;;3.88;1.50;;;28.60;93.10;;;;;;5042621;28;20075;-75
2022/02/18 07:29:07;;;;;;;6.55;1.90;;;28.50;93.20;;;;;;5043790;28;20028;-75
2022/02/18 07:31:36;;;;;;;3.42;2.10;;;28.50;93.40;;;;;;5045514;28;20033;-76
2022/02/18 07:34:03;;;;;;;5.55;1.92;;;28.50;93.70;;;;;;5053062;28;20033;-77
2022/02/18 07:36:31;;;;;;;5.57;1.75;;;28.30;94.00;;;;;;5042688;28;21500;-76
2022/02/18 07:38:58;;;;;;;5.10;1.73;;;28.10;94.40;;;;;;5048863;28;20033;-76
2022/02/18 07:41:26;;;;;;;3.80;1.92;;;28.00;94.80;;;;;;5049306;28;20096;-77
2022/02/18 07:43:53;;;;;;;6.82;1.55;;;27.90;95.30;;;;;;5050457;28;20430;-74
2022/02/18 07:46:21;;;;;;;15.40;3.03;;;27.80;95.60;;;;;;5049640;28;20108;-75
2022/02/18 07:48:48;;;;;;;4.00;1.75;;;27.60;96.00;;;;;;5042229;28;20134;-76
2022/02/18 07:51:15;;;;;;;3.22;1.85;;;27.50;96.20;;;;;;5050496;28;20159;-76
2022/02/18 07:53:43;;;;;;;3.78;1.08;;;27.30;96.40;;;;;;5044495;28;20115;-74
2022/02/18 07:56:11;;;;;;;3.80;1.45;;;27.30;96.60;;;;;;5048547;28;20037;-78
2022/02/18 07:58:38;;;;;;;9.32;2.40;;;27.30;97.20;;;;;;5046334;28;20029;-73
2022/02/18 08:01:05;;;;;;;5.50;1.90;;;27.20;97.40;;;;;;5049082;28;20033;-74
2022/02/18 08:03:33;;;;;;;5.60;1.83;;;27.10;97.90;;;;;;5048652;28;20087;-76
2022/02/18 08:06:00;;;;;;;8.05;1.75;;;27.10;98.10;;;;;;5049329;28;20257;-77
2022/02/18 08:08:28;;;;;;;6.68;1.67;;;27.00;98.20;;;;;;5040969;28;20036;-76
2022/02/18 08:10:55;;;;;;;3.88;1.83;;;26.90;98.20;;;;;;5038125;28;20452;-75
2022/02/18 08:13:22;;;;;;;9.32;2.35;;;26.90;98.20;;;;;;5049199;28;20406;-77
2022/02/18 08:15:50;;;;;;;5.43;1.80;;;26.80;99.10;;;;;;5041331;28;20441;-75
2022/02/18 08:18:19;;;;;;;3.72;1.85;;;26.70;99.60;;;;;;5043527;28;20052;-75
2022/02/18 08:20:47;;;;;;;10.65;2.55;;;26.60;99.80;;;;;;5038047;28;20033;-77
2022/02/18 08:23:15;;;;;;;6.30;2.40;;;26.60;99.20;;;;;;5049798;28;20475;-79
2022/02/18 08:25:42;;;;;;;6.55;2.05;;;26.50;99.90;;;;;;5050733;28;20420;-76
2022/02/18 08:28:10;;;;;;;15.50;2.55;;;26.40;99.90;;;;;;5049606;28;20017;-77
2022/02/18 08:30:38;;;;;;;4.43;1.92;;;26.30;99.90;;;;;;5042672;28;20179;-75
2022/02/18 08:33:05;;;;;;;5.43;1.98;;;26.30;99.90;;;;;;5041708;28;20025;-76
2022/02/18 08:35:33;;;;;;;5.13;1.70;;;26.20;99.90;;;;;;5049323;28;20373;-77
2022/02/18 08:38:01;;;;;;;5.80;2.75;;;26.20;99.90;;;;;;5045884;28;20036;-76
2022/02/18 08:40:29;;;;;;;6.97;2.00;;;26.10;99.90;;;;;;5044577;28;20025;-76
2022/02/18 08:42:56;;;;;;;6.55;2.58;;;26.20;99.90;;;;;;5046736;28;20124;-75
2022/02/18 08:45:27;;;;;;;5.80;2.25;;;26.10;99.90;;;;;;5046652;28;20057;-76
2022/02/18 08:47:54;;;;;;;8.25;1.42;;;26.00;99.90;;;;;;5046847;28;20546;-78
2022/02/18 08:50:22;;;;;;;6.38;1.73;;;26.00;99.90;;;;;;5050470;28;20025;-76
2022/02/18 08:52:50;;;;;;;8.68;1.85;;;25.90;99.90;;;;;;5049902;28;20033;-76
2022/02/18 08:55:19;;;;;;;4.63;1.73;;;25.90;99.90;;;;;;5050422;28;20047;-78
2022/02/18 08:57:47;;;;;;;3.47;1.42;;;25.80;99.90;;;;;;5047848;28;20460;-76
2022/02/18 09:00:17;;;;;;;7.60;2.55;;;25.80;99.90;;;;;;5050827;28;20033;-76
2022/02/18 09:02:45;;;;;;;5.82;2.72;;;25.70;99.90;;;;;;5044732;28;20393;-75
2022/02/18 09:05:13;;;;;;;7.57;1.70;;;25.70;99.90;;;;;;5040119;28;20033;-76
2022/02/18 09:07:41;;;;;;;7.13;1.67;;;25.60;99.90;;;;;;5044672;28;20037;-76
2022/02/18 09:10:09;;;;;;;6.40;1.67;;;25.60;99.90;;;;;;5035192;28;20033;-76
2022/02/18 09:12:39;;;;;;;7.65;2.20;;;25.50;99.90;;;;;;5039890;28;20033;-75
2022/02/18 09:15:11;;;;;;;5.00;1.65;;;25.50;99.90;;;;;;5039916;28;20057;-76
2022/02/18 09:17:38;;;;;;;8.65;2.60;;;25.50;99.90;;;;;;5037509;28;20392;-74
2022/02/18 09:20:07;;;;;;;3.88;2.10;;;25.50;99.90;;;;;;5037760;28;20045;-76
2022/02/18 09:22:34;;;;;;;6.78;1.95;;;25.50;99.90;;;;;;5036346;28;20486;-74
2022/02/18 09:25:02;;;;;;;4.22;1.88;;;25.60;99.90;;;;;;5039674;28;20033;-75
2022/02/18 09:27:29;;;;;;;4.82;1.63;;;25.60;99.90;;;;;;5037921;28;20391;-75
2022/02/18 09:29:57;;;;;;;8.02;1.92;;;25.50;99.90;;;;;;5040524;28;20039;-77
2022/02/18 09:32:24;;;;;;;16.40;2.50;;;25.50;99.90;;;;;;5038540;28;20080;-76
2022/02/18 09:34:52;;;;;;;5.90;1.92;;;25.60;99.90;;;;;;5038669;28;20592;-76
2022/02/18 09:37:19;;;;;;;7.90;2.05;;;25.60;99.90;;;;;;5037854;28;20041;-74
2022/02/18 09:39:46;;;;;;;31.38;8.82;;;25.40;99.90;;;;;;5039985;28;20091;-75
2022/02/18 09:42:20;;;;;;;10.82;3.45;;;25.30;99.90;;;;;;5038510;28;20467;-75
2022/02/18 09:44:49;;;;;;;4.45;2.55;;;25.40;99.90;;;;;;5042101;28;20036;-76
2022/02/18 09:47:17;;;;;;;8.00;1.90;;;25.30;99.90;;;;;;5041719;28;20017;-77
2022/02/18 09:49:46;;;;;;;11.07;2.95;;;25.20;99.90;;;;;;5046112;28;20055;-75
2022/02/18 09:52:15;;;;;;;7.63;3.22;;;25.10;99.90;;;;;;5043430;28;20051;-75
2022/02/18 09:54:43;;;;;;;5.63;1.70;;;25.10;99.90;;;;;;5041195;28;20480;-77
2022/02/18 09:57:10;;;;;;;6.00;2.30;;;25.00;99.90;;;;;;5043037;28;20147;-75
2022/02/18 09:59:39;;;;;;;9.13;2.80;;;25.00;99.90;;;;;;5045956;28;20025;-77
2022/02/18 10:02:07;;;;;;;8.48;3.67;;;24.90;99.90;;;;;;5047357;28;21781;-75
2022/02/18 10:04:34;;;;;;;12.27;2.25;;;25.00;99.90;;;;;;5048972;28;20037;-77
2022/02/18 10:07:03;;;;;;;5.40;1.80;;;25.00;99.90;;;;;;5051392;28;20068;-75
2022/02/18 10:09:49;;;;;;;8.15;2.47;;;25.00;99.90;;;;;;5050693;28;20033;-74
2022/02/18 10:12:16;;;;;;;8.02;2.72;;;24.90;99.90;;;;;;5044272;28;20027;-75
2022/02/18 10:15:03;;;;;;;9.82;2.65;;;24.90;99.90;;;;;;5048463;28;20033;-75
2022/02/18 10:17:50;;;;;;;7.07;2.90;;;24.90;99.90;;;;;;5050890;28;20032;-77
2022/02/18 10:20:28;;;;;;;5.35;3.17;;;24.90;99.90;;;;;;5035536;28;20112;-74
2022/02/18 10:23:04;;;;;;;9.98;3.60;;;24.80;99.90;;;;;;5040587;28;20060;-76
2022/02/18 10:25:36;;;;;;;9.25;2.42;;;24.70;99.90;;;;;;5042661;28;20025;-77
2022/02/18 10:28:06;;;;;;;13.48;3.80;;;24.60;99.90;;;;;;5043641;28;20017;-76
2022/02/18 10:30:34;;;;;;;16.38;6.68;;;24.60;99.90;;;;;;5044811;28;20029;-78
2022/02/18 10:33:22;;;;;;;22.45;7.97;;;24.60;99.90;;;;;;5042731;28;20041;-78
2022/02/18 10:36:01;;;;;;;141.68;39.03;;;24.70;99.90;;;;;;5043039;28;20032;-79
2022/02/18 10:38:32;;;;;;;30.33;9.32;;;24.80;99.90;;;;;;5045282;28;20025;-75
2022/02/18 10:40:59;;;;;;;11.85;4.32;;;24.80;99.90;;;;;;5049809;28;20479;-76
2022/02/18 10:43:28;;;;;;;17.27;5.68;;;24.70;99.90;;;;;;5050375;28;20049;-75
2022/02/18 10:46:02;;;;;;;10.70;3.25;;;24.60;99.90;;;;;;5049952;28;20476;-78
2022/02/18 10:48:50;;;;;;;9.13;4.03;;;24.50;99.90;;;;;;5048795;28;20109;-75
2022/02/18 10:51:27;;;;;;;10.88;3.45;;;24.10;99.90;;;;;;5051602;28;20419;-79
2022/02/18 10:53:54;;;;;;;12.15;3.25;;;23.80;99.90;;;;;;5052647;28;20057;-76
2022/02/18 10:56:27;;;;;;;8.27;3.33;;;23.60;99.90;;;;;;5050642;28;20434;-75
2022/02/18 10:58:55;;;;;;;13.70;3.83;;;23.50;99.90;;;;;;5049428;28;20506;-77
2022/02/18 11:01:27;;;;;;;14.25;5.03;;;23.40;99.90;;;;;;5049303;28;20021;-75
2022/02/18 11:04:01;;;;;;;15.77;4.40;;;23.30;99.90;;;;;;5045878;28;20029;-75
2022/02/18 11:06:32;;;;;;;16.15;4.43;;;23.30;99.90;;;;;;5043371;28;20029;-76
2022/02/18 11:09:08;;;;;;;18.02;5.57;;;23.30;99.90;;;;;;5045424;28;20048;-77
2022/02/18 11:11:35;;;;;;;;;;;23.30;99.90;;;;;;5041126;28;20029;-75
2022/02/18 11:14:22;;;;;;;13.52;4.82;;;23.20;99.90;;;;;;5044712;28;20283;-77
2022/02/18 11:16:55;;;;;;;12.18;5.22;;;23.20;99.90;;;;;;5041100;28;20653;-75
2022/02/18 11:19:23;;;;;;;20.63;5.75;;;23.10;99.90;;;;;;5048405;28;20033;-78
2022/02/18 11:21:50;;;;;;;14.02;5.80;;;23.00;99.90;;;;;;5044157;28;20086;-76
2022/02/18 11:24:21;;;;;;;13.32;4.43;;;23.00;99.90;;;;;;5048056;28;20786;-78
2022/02/18 11:26:49;;;;;;;11.18;5.15;;;23.00;99.90;;;;;;5048312;28;20110;-77
2022/02/18 11:29:18;;;;;;;17.63;4.03;;;22.90;99.90;;;;;;5047745;28;20025;-75
2022/02/18 11:31:52;;;;;;;17.35;4.88;;;22.90;99.90;;;;;;5049508;28;20410;-77
2022/02/18 11:34:31;;;;;;;18.10;4.75;;;22.80;99.90;;;;;;5048813;28;20372;-76
2022/02/18 11:37:14;;;;;;;16.90;5.03;;;22.80;99.90;;;;;;5046556;28;20032;-77
2022/02/18 11:40:08;;;;;;;13.90;5.00;;;22.80;99.90;;;;;;5040396;28;20036;-76
2022/02/18 11:42:42;;;;;;;9.20;3.88;;;23.00;99.90;;;;;;5046844;28;20532;-75
2022/02/18 11:45:16;;;;;;;12.30;3.88;;;23.00;99.90;;;;;;5047432;28;20060;-74
2022/02/18 11:47:46;;;;;;;12.23;3.95;;;23.10;99.90;;;;;;5047559;28;20052;-78
2022/02/18 11:50:16;;;;;;;9.05;3.38;;;23.10;99.90;;;;;;5043181;28;20028;-79
2022/02/18 11:52:52;;;;;;;18.63;5.80;;;23.10;99.90;;;;;;5045958;28;20032;-77
2022/02/18 11:55:39;;;;;;;18.35;4.45;;;23.10;99.90;;;;;;5041521;28;20095;-73
2022/02/18 11:58:13;;;;;;;12.93;4.03;;;23.10;99.90;;;;;;5038310;28;22094;-75
2022/02/18 12:00:46;;;;;;;14.55;4.60;;;23.20;99.90;;;;;;5042428;28;20045;-75
2022/02/18 12:03:15;;;;;;;15.18;3.83;;;23.20;99.90;;;;;;5048245;28;20091;-75
2022/02/18 12:06:08;;;;;;;16.20;4.40;;;23.20;99.90;;;;;;5039381;28;20032;-76
2022/02/18 12:08:41;;;;;;;11.43;3.92;;;23.10;99.90;;;;;;5048733;28;20029;-75
2022/02/18 12:11:12;;;;;;;12.15;3.58;;;23.20;99.90;;;;;;5047746;28;20024;-75
2022/02/18 12:13:59;;;;;;;11.10;3.15;;;23.20;99.90;;;;;;5043273;28;20025;-77
2022/02/18 12:16:27;;;;;;;10.95;4.22;;;23.10;99.90;;;;;;5041209;28;20111;-74
2022/02/18 12:19:15;;;;;;;8.20;2.95;;;23.10;99.90;;;;;;5046485;28;20119;-74
2022/02/18 12:21:57;;;;;;;9.73;2.92;;;23.10;99.90;;;;;;5045640;28;20021;-72
2022/02/18 12:24:40;;;;;;;12.05;3.10;;;22.90;99.90;;;;;;5047745;28;20037;-72
2022/02/18 12:27:27;;;;;;;9.88;2.33;;;22.90;99.90;;;;;;5047475;28;20116;-72
2022/02/18 12:29:56;;;;;;;25.27;4.68;;;22.80;99.90;;;;;;5045655;28;20075;-73
2022/02/18 12:32:24;;;;;;;9.85;3.50;;;22.70;99.90;;;;;;5043754;28;20021;-75
2022/02/18 12:35:03;;;;;;;8.38;3.50;;;22.70;99.90;;;;;;5049761;28;20040;-75
2022/02/18 12:37:31;;;;;;;12.32;3.15;;;22.60;99.90;;;;;;5047716;28;20329;-73
2022/02/18 12:40:00;;;;;;;10.68;2.97;;;22.60;99.90;;;;;;5050403;28;20029;-75
2022/02/18 12:42:36;;;;;;;11.25;3.42;;;22.60;99.90;;;;;;5049294;28;20044;-77
2022/02/18 12:45:09;;;;;;;15.85;3.45;;;22.60;99.90;;;;;;5042096;28;20025;-75
2022/02/18 12:47:36;;;;;;;13.05;2.95;;;22.60;99.90;;;;;;5048353;28;20036;-74
2022/02/18 12:50:08;;;;;;;10.38;3.55;;;22.60;99.90;;;;;;5048987;28;20059;-78
2022/02/18 12:52:36;;;;;;;9.52;3.88;;;22.60;99.90;;;;;;5047873;28;20188;-79
2022/02/18 12:55:07;;;;;;;16.30;3.72;;;22.60;99.90;;;;;;5047203;28;20076;-75
2022/02/18 12:57:35;;;;;;;11.10;2.00;;;22.60;99.90;;;;;;5047853;28;20071;-76
2022/02/18 13:00:08;;;;;;;12.02;2.72;;;22.60;99.90;;;;;;5050013;28;20349;-80
2022/02/18 13:02:46;;;;;;;8.85;2.55;;;22.50;99.90;;;;;;5048783;28;20056;-74
2022/02/18 13:05:19;;;;;;;18.48;4.53;;;22.50;99.90;;;;;;5030292;28;20057;-74